Dades meteomassalio
Diari Summary for Febrer 18, 2017 Units:  Metric    English   Both
« Previous Day
Next Day »
Diari Semanal Mensual Anual Personalitzat
  Maxima: Minima: Mijana:
Temperatura: -17.8 °C -17.6 °C -14.2 °C
Rosada: -17.8 °C -18.1 °C -15.3 °C
Humitat: Humidity % 72 % 87 %
Velocitat del vent: 0 km/h 0 km/h 4.2 km/h
Racha vent: 0 km/h - -
Vent:- - NE
Pressio: 0 hPa 34554.1 hPa -
Pluja: 12.7 mm    
Historical Graphs
 
 
Tabular Data for Febrer 18, 2017
Time Temperature Dew Point Pressure Wind Wind Speed Wind Gust Humidity Rainfall Rate (Hourly) solar Conditions
-17.8 °C -17.8 °C 0 hPa Calm     Humidity % 0 mm SolarRadiationWatts/m^2 W/m2 Conditions
00:02 -15.9 °C -16.5 °C 34774.2 hPa Calm     92 % 0 mm 0.0 W/m2 RA
00:07 -15.9 °C -16.6 °C 34774.2 hPa Calm     92 % 0 mm 0.0 W/m2 CLR
00:12 -15.9 °C -16.6 °C 34774.2 hPa Calm     92 % 0 mm 0.0 W/m2 CLR
00:17 -15.9 °C -16.6 °C 34760.7 hPa Calm     92 % 0 mm 0.0 W/m2 CLR
00:27 -16.1 °C -16.7 °C 34760.7 hPa Calm     92 % 0 mm 0.0 W/m2 CLR
00:32 -16.1 °C -16.7 °C 34760.7 hPa Calm     92 % 0 mm 0.0 W/m2 CLR
00:37 -16.1 °C -16.8 °C 34774.2 hPa Calm     92 % 0 mm 0.0 W/m2 CLR
00:42 -16.2 °C -16.8 °C 34760.7 hPa Calm     92 % 0 mm 0.0 W/m2 CLR
00:47 -16.2 °C -16.7 °C 34760.7 hPa Calm     93 % 0 mm 0.0 W/m2 CLR
00:52 -16.2 °C -16.7 °C 34760.7 hPa Calm     93 % 0 mm 0.0 W/m2 CLR
00:57 -16.1 °C -16.7 °C 34760.7 hPa Calm     93 % 0 mm 0.0 W/m2 CLR
01:02 -16.2 °C -16.7 °C 34760.7 hPa Calm     93 % 0 mm 0.0 W/m2 CLR
01:07 -16.2 °C -16.7 °C 34760.7 hPa Calm     93 % 0 mm 0.0 W/m2 CLR
01:12 -16.2 °C -16.7 °C 34760.7 hPa Calm     93 % 0 mm 0.0 W/m2 CLR
01:17 -16.2 °C -16.7 °C 34760.7 hPa Calm     93 % 0 mm 0.0 W/m2 CLR
01:22 -16.2 °C -16.8 °C 34750.5 hPa Calm     93 % 0 mm 0.0 W/m2 CLR
01:27 -16.2 °C -16.8 °C 34750.5 hPa Calm     93 % 0 mm 0.0 W/m2 CLR
01:32 -16.3 °C -16.9 °C 34750.5 hPa Calm     93 % 0 mm 0.0 W/m2 CLR
01:37 -16.4 °C -16.9 °C 34750.5 hPa Calm     93 % 0 mm 0.0 W/m2 CLR
01:42 -16.4 °C -16.9 °C 34750.5 hPa Calm     93 % 0 mm 0.0 W/m2 CLR
01:47 -16.4 °C -17 °C 34750.5 hPa Calm     93 % 0 mm 0.0 W/m2 CLR
01:52 -16.5 °C -17.1 °C 34750.5 hPa Calm     93 % 0 mm 0.0 W/m2 CLR
01:57 -16.4 °C -17 °C 34750.5 hPa Calm     93 % 0 mm 0.0 W/m2 CLR
02:02 -16.4 °C -17 °C 34750.5 hPa Calm     93 % 0 mm 0.0 W/m2 CLR
02:07 -16.5 °C -17.1 °C 34750.5 hPa Calm     93 % 0 mm 0.0 W/m2 CLR
02:12 -16.4 °C -17 °C 34750.5 hPa Calm     93 % 0 mm 0.0 W/m2 CLR
02:17 -16.3 °C -16.9 °C 34750.5 hPa Calm     93 % 0 mm 0.0 W/m2 CLR
02:22 -16.3 °C -16.8 °C 34750.5 hPa Calm     93 % 0 mm 0.0 W/m2 CLR
02:27 -16.4 °C -17 °C 34740.4 hPa Calm     93 % 0 mm 0.0 W/m2 CLR
02:32 -16.4 °C -17 °C 34740.4 hPa Calm     93 % 7.62 mm 0.0 W/m2 RA
02:37 -16.4 °C -17 °C 34740.4 hPa Calm     93 % 7.62 mm 0.0 W/m2 CLR
02:42 -16.5 °C -17.1 °C 34740.4 hPa Calm     93 % 7.62 mm 0.0 W/m2 CLR
02:47 -16.6 °C -17.1 °C 34740.4 hPa Calm     93 % 7.62 mm 0.0 W/m2 CLR
02:52 -16.6 °C -17.2 °C 34740.4 hPa Calm     93 % 7.62 mm 0.0 W/m2 CLR
02:57 -16.7 °C -17.3 °C 34740.4 hPa Calm     93 % 7.62 mm 0.0 W/m2 CLR
03:02 -16.7 °C -17.3 °C 34740.4 hPa Calm     93 % 7.62 mm 0.0 W/m2 CLR
03:07 -16.7 °C -17.3 °C 34740.4 hPa Calm     93 % 7.62 mm 0.0 W/m2 CLR
03:12 -16.7 °C -17.3 °C 34740.4 hPa Calm     93 % 7.62 mm 0.0 W/m2 CLR
03:17 -16.8 °C -17.4 °C 34726.8 hPa Calm     93 % 7.62 mm 0.0 W/m2 CLR
03:22 -16.9 °C -17.4 °C 34726.8 hPa Calm     93 % 7.62 mm 0.0 W/m2 CLR
03:27 -16.9 °C -17.5 °C 34726.8 hPa Calm     93 % 7.62 mm 0.0 W/m2 CLR
03:32 -16.9 °C -17.5 °C 34726.8 hPa Calm     93 % 0 mm 0.0 W/m2 CLR
03:37 -16.9 °C -17.4 °C 34726.8 hPa Calm     93 % 0 mm 0.0 W/m2 CLR
03:42 -16.9 °C -17.4 °C 34726.8 hPa Calm     93 % 0 mm 0.0 W/m2 CLR
03:47 -16.9 °C -17.4 °C 34726.8 hPa Calm     93 % 0 mm 0.0 W/m2 CLR
03:52 -16.9 °C -17.5 °C 34726.8 hPa Calm     93 % 0 mm 0.0 W/m2 CLR
03:57 -16.9 °C -17.5 °C 34726.8 hPa Calm     93 % 0 mm 0.0 W/m2 CLR
04:02 -16.9 °C -17.5 °C 34726.8 hPa Calm     93 % 0 mm 0.0 W/m2 CLR
04:07 -17 °C -17.6 °C 34726.8 hPa Calm     93 % 0 mm 0.0 W/m2 CLR
04:12 -17 °C -17.6 °C 34726.8 hPa Calm     93 % 0 mm 0.0 W/m2 CLR
04:17 -16.9 °C -17.5 °C 34716.7 hPa Calm     93 % 0 mm 0.0 W/m2 CLR
04:22 -16.8 °C -17.3 °C 34716.7 hPa Calm     94 % 0 mm 0.0 W/m2 CLR
04:27 -16.8 °C -17.3 °C 34716.7 hPa Calm     94 % 0 mm 0.0 W/m2 CLR
04:32 -16.9 °C -17.4 °C 34716.7 hPa Calm     93 % 0 mm 0.0 W/m2 CLR
04:37 -17 °C -17.6 °C 34716.7 hPa Calm     93 % 0 mm 0.0 W/m2 CLR
04:42 -17.1 °C -17.6 °C 34716.7 hPa Calm     93 % 0 mm 0.0 W/m2 CLR
04:47 -17.1 °C -17.7 °C 34716.7 hPa Calm     93 % 0 mm 0.0 W/m2 CLR
04:52 -17.2 °C -17.7 °C 34716.7 hPa Calm     93 % 0 mm 0.0 W/m2 CLR
04:57 -17.2 °C -17.7 °C 34716.7 hPa Calm     93 % 0 mm 0.0 W/m2 CLR
05:02 -17.2 °C -17.7 °C 34716.7 hPa Calm     94 % 0 mm 0.0 W/m2 CLR
05:07 -17.2 °C -17.7 °C 34716.7 hPa Calm     94 % 0 mm 0.0 W/m2 CLR
05:12 -17.2 °C -17.7 °C 34716.7 hPa Calm     94 % 0 mm 0.0 W/m2 CLR
05:17 -17.3 °C -17.8 °C 34716.7 hPa Calm     93 % 0 mm 0.0 W/m2 CLR
05:22 -17.3 °C -17.8 °C 34716.7 hPa Calm     93 % 0 mm 0.0 W/m2 CLR
05:27 -17.3 °C -17.9 °C 34716.7 hPa Calm     93 % 0 mm 0.0 W/m2 CLR
05:32 -17.3 °C -17.9 °C 34716.7 hPa Calm     93 % 0 mm 0.0 W/m2 CLR
05:37 -17.3 °C -17.9 °C 34716.7 hPa Calm     93 % 0 mm 0.0 W/m2 CLR
05:42 -17.3 °C -17.9 °C 34716.7 hPa Calm     93 % 0 mm 0.0 W/m2 CLR
05:47 -17.3 °C -17.9 °C 34716.7 hPa Calm     93 % 0 mm 0.0 W/m2 CLR
05:52 -17.3 °C -17.7 °C 34716.7 hPa Calm     94 % 0 mm 0.0 W/m2 CLR
05:57 -17.2 °C -17.7 °C 34716.7 hPa Calm     94 % 0 mm 0.0 W/m2 CLR
06:02 -17.1 °C -17.6 °C 34716.7 hPa Calm     94 % 0 mm 0.0 W/m2 CLR
06:07 -17.1 °C -17.5 °C 34716.7 hPa Calm     94 % 0 mm 0.0 W/m2 CLR
06:12 -17.1 °C -17.7 °C 34716.7 hPa Calm     93 % 0 mm 0.0 W/m2 CLR
06:17 -17.2 °C -17.7 °C 34716.7 hPa Calm     93 % 0 mm 0.0 W/m2 CLR
06:22 -17.3 °C -17.8 °C 34716.7 hPa Calm     93 % 0 mm 0.0 W/m2 CLR
06:27 -17.4 °C -17.9 °C 34716.7 hPa Calm     93 % 0 mm 0.0 W/m2 CLR
06:32 -17.4 °C -18 °C 34716.7 hPa Calm     93 % 0 mm 0.0 W/m2 CLR
06:33 -17.4 °C -18 °C 34716.7 hPa Calm     93 % 0 mm 0.0 W/m2 CLR
06:38 -17.4 °C -17.9 °C 34703.1 hPa Calm     94 % 0 mm 0.0 W/m2 CLR
06:43 -17.4 °C -18 °C 34716.7 hPa Calm     93 % 0 mm 0.0 W/m2 CLR
06:48 -17.4 °C -18 °C 34703.1 hPa Calm     93 % 0 mm 0.0 W/m2 CLR
06:53 -17.6 °C -18.1 °C 34716.7 hPa Calm     93 % 0 mm 0.0 W/m2 CLR
06:58 -17.6 °C -18.1 °C 34703.1 hPa Calm     93 % 0 mm 0.0 W/m2 CLR
07:03 -17.6 °C -18 °C 34703.1 hPa Calm     94 % 0 mm 0.0 W/m2 CLR
07:08 -17.6 °C -18 °C 34703.1 hPa Calm     94 % 0 mm 0.0 W/m2 CLR
07:13 -17.6 °C -18 °C 34703.1 hPa Calm     94 % 0 mm 0.0 W/m2 CLR
07:18 -17.6 °C -18 °C 34703.1 hPa Calm     94 % 0 mm 0.0 W/m2 CLR
07:23 -17.5 °C -17.9 °C 34703.1 hPa Calm     94 % 0 mm 0.0 W/m2 CLR
07:28 -17.5 °C -17.9 °C 34716.7 hPa Calm     94 % 0 mm 0.0 W/m2 CLR
07:33 -17.6 °C -18 °C 34716.7 hPa Calm     94 % 0 mm 0.0 W/m2 CLR
07:38 -17.6 °C -18.1 °C 34716.7 hPa Calm     94 % 0 mm 0.0 W/m2 CLR
07:43 -17.6 °C -18.1 °C 34716.7 hPa Calm     94 % 0 mm 0.0 W/m2 OVC
07:48 -17.6 °C -18 °C 34716.7 hPa Calm     94 % 0 mm 0.0 W/m2 OVC
07:53 -17.5 °C -17.9 °C 34716.7 hPa Calm     94 % 0 mm 5.0 W/m2 OVC
07:58 -17.4 °C -17.9 °C 34716.7 hPa Calm     94 % 0 mm 9.0 W/m2 BKN
08:03 -17.4 °C -17.9 °C 34716.7 hPa Calm     94 % 0 mm 12.0 W/m2 BKN
08:08 -17.5 °C -17.9 °C 34716.7 hPa Calm     94 % 0 mm 16.0 W/m2 BKN
08:13 -17.5 °C -17.9 °C 34716.7 hPa Calm     94 % 0 mm 23.0 W/m2 BKN
08:18 -17.4 °C -17.9 °C 34716.7 hPa Calm     94 % 0 mm 30.0 W/m2 BKN
08:23 -17.3 °C -17.8 °C 34716.7 hPa Calm     94 % 0 mm 37.0 W/m2 BKN
08:28 -17.3 °C -17.7 °C 34716.7 hPa Calm     94 % 0 mm 44.0 W/m2 BKN
08:33 -17.3 °C -17.7 °C 34716.7 hPa Calm     94 % 0 mm 54.0 W/m2 SCT
08:38 -17.2 °C -17.7 °C 34716.7 hPa Calm     94 % 0 mm 67.0 W/m2 SCT
08:43 -17.1 °C -17.6 °C 34716.7 hPa Calm     94 % 0 mm 77.0 W/m2 FEW
08:48 -16.9 °C -17.4 °C 34716.7 hPa Calm     94 % 0 mm 81.0 W/m2 FEW
08:53 -16.7 °C -17.2 °C 34716.7 hPa Calm     94 % 0 mm 114.0 W/m2 CLR
08:58 -16.6 °C -17.1 °C 34716.7 hPa Calm     94 % 0 mm 130.0 W/m2 CLR
09:03 -16.5 °C -17 °C 34716.7 hPa Calm     94 % 0 mm 144.0 W/m2 CLR
09:08 -16.4 °C -16.9 °C 34716.7 hPa Calm     94 % 7.62 mm 158.0 W/m2 RA
09:13 -16.2 °C -16.7 °C 34703.1 hPa Calm     94 % 7.62 mm 128.0 W/m2 CLR
09:18 -16 °C -16.5 °C 34703.1 hPa Calm     94 % 7.62 mm 195.0 W/m2 CLR
09:23 -15.8 °C -16.3 °C 34703.1 hPa Calm     94 % 7.62 mm 209.0 W/m2 CLR
09:28 -15.6 °C -16.1 °C 34703.1 hPa Calm     94 % 7.62 mm 229.0 W/m2 CLR
09:33 -15.4 °C -15.9 °C 34703.1 hPa Calm     94 % 7.62 mm 243.0 W/m2 CLR
09:38 -15.3 °C -15.9 °C 34703.1 hPa Calm     93 % 7.62 mm 255.0 W/m2 CLR
09:43 -15.1 °C -15.7 °C 34703.1 hPa Calm     93 % 7.62 mm 269.0 W/m2 CLR
09:48 -14.9 °C -15.4 °C 34703.1 hPa Calm     93 % 7.62 mm 281.0 W/m2 CLR
09:53 -14.6 °C -15.2 °C 34703.1 hPa Calm     93 % 7.62 mm 297.0 W/m2 CLR
09:59 -14.3 °C -14.9 °C 34703.1 hPa Calm     93 % 7.62 mm 309.0 W/m2 CLR
10:04 -14.2 °C -14.9 °C 34703.1 hPa Calm     91 % 7.62 mm 323.0 W/m2 CLR
10:09 -14.1 °C -14.8 °C 34703.1 hPa Calm     91 % 0 mm 336.0 W/m2 CLR
10:14 -13.9 °C -14.8 °C 34693 hPa Calm     90 % 0 mm 348.0 W/m2 CLR
10:19 -13.7 °C -14.6 °C 34693 hPa Calm     90 % 0 mm 359.0 W/m2 CLR
10:24 -13.4 °C -14.3 °C 34693 hPa Calm     89 % 0 mm 371.0 W/m2 CLR
10:29 -13.2 °C -14.3 °C 34693 hPa Calm     87 % 0 mm 383.0 W/m2 CLR
10:34 -13 °C -14.3 °C 34693 hPa ENE 3.1 km/h   86 % 0 mm 396.0 W/m2 CLR
10:44 -12.7 °C -14.1 °C 34693 hPa Calm     84 % 0 mm 413.0 W/m2 CLR
10:49 -12.4 °C -13.9 °C 34682.8 hPa Calm     83 % 0 mm 427.0 W/m2 CLR
10:54 -12.2 °C -13.9 °C 34682.8 hPa Calm     81 % 0 mm 439.0 W/m2 CLR
10:59 -12.1 °C -13.8 °C 34682.8 hPa Calm     80 % 0 mm 450.0 W/m2 CLR
11:04 -11.8 °C -13.8 °C 34682.8 hPa Calm     79 % 0 mm 462.0 W/m2 CLR
11:09 -11.7 °C -13.9 °C 34669.3 hPa NE 9 km/h   77 % 0 mm 473.0 W/m2 CLR
11:14 -11.7 °C -13.9 °C 34669.3 hPa Calm     77 % 0 mm 480.0 W/m2 CLR
11:19 -11.6 °C -13.9 °C 34669.3 hPa Calm   0.3 km/h 76 % 0 mm 492.0 W/m2 CLR
11:24 -11.5 °C -13.8 °C 34669.3 hPa Calm     76 % 0 mm 497.0 W/m2 CLR
11:29 -11.4 °C -13.8 °C 34669.3 hPa NE 9 km/h 9 km/h 75 % 0 mm 508.0 W/m2 CLR
11:34 -11.3 °C -13.7 °C 34669.3 hPa ENE 15 km/h 15 km/h 75 % 0 mm 517.0 W/m2 CLR
11:39 -11.3 °C -13.6 °C 34669.3 hPa ENE 15 km/h 15 km/h 76 % 0 mm 524.0 W/m2 CLR
11:44 -11.3 °C -13.7 °C 34669.3 hPa NE 15 km/h 15 km/h 75 % 0 mm 531.0 W/m2 CLR
11:49 -11.3 °C -13.7 °C 34659.1 hPa NE 17.9 km/h 17.9 km/h 76 % 0 mm 540.0 W/m2 CLR
11:54 -11.4 °C -13.7 °C 34659.1 hPa ENE 17.9 km/h 17.9 km/h 76 % 0 mm 545.0 W/m2 CLR
11:59 -11.4 °C -13.6 °C 34659.1 hPa ENE 20.9 km/h 20.9 km/h 77 % 0 mm 550.0 W/m2 CLR
12:04 -11.5 °C -13.7 °C 34659.1 hPa ENE 17.9 km/h 17.9 km/h 77 % 0 mm 561.0 W/m2 CLR
12:09 -11.4 °C -13.5 °C 34659.1 hPa ENE 17.9 km/h 17.9 km/h 78 % 0 mm 566.0 W/m2 CLR
12:14 -11.5 °C -13.6 °C 34659.1 hPa ENE 20.9 km/h 20.9 km/h 78 % 0 mm 571.0 W/m2 CLR
12:19 -11.6 °C -13.5 °C 34645.6 hPa ENE 17.9 km/h 17.9 km/h 79 % 0 mm 575.0 W/m2 CLR
12:24 -11.4 °C -13.4 °C 34645.6 hPa NE 18.2 km/h 18.2 km/h 79 % 0 mm 580.0 W/m2 CLR
12:29 -11.4 °C -13.4 °C 34645.6 hPa NE 20.9 km/h 20.9 km/h 79 % 0 mm 582.0 W/m2 CLR
12:34 -11.4 °C -13.4 °C 34645.6 hPa NE 17.9 km/h 17.9 km/h 79 % 0 mm 585.0 W/m2 CLR
12:39 -11.5 °C -13.4 °C 34635.4 hPa ENE 17.9 km/h 17.9 km/h 79 % 0 mm 591.0 W/m2 CLR
12:44 -11.4 °C -13.3 °C 34635.4 hPa ENE 11.9 km/h 14.2 km/h 80 % 0 mm 594.0 W/m2 CLR
12:49 -11.4 °C -13.3 °C 34635.4 hPa NE 17.9 km/h 17.9 km/h 79 % 0 mm 596.0 W/m2 CLR
12:54 -11.4 °C -13.4 °C 34625.2 hPa ENE 20.9 km/h 20.9 km/h 78 % 0 mm 598.0 W/m2 CLR
12:59 -11.3 °C -13.2 °C 34625.2 hPa NE 20.9 km/h 20.9 km/h 80 % 0 mm 599.0 W/m2 CLR
13:04 -11.3 °C -13.3 °C 34625.2 hPa ENE 15.6 km/h 15.6 km/h 79 % 0 mm 601.0 W/m2 CLR
13:09 -11.3 °C -13.4 °C 34625.2 hPa NE 17.9 km/h 17.9 km/h 78 % 0 mm 601.0 W/m2 CLR
13:14 -11.2 °C -13.2 °C 34625.2 hPa NNE 17.9 km/h 17.9 km/h 79 % 0 mm 599.0 W/m2 CLR
13:19 -11.2 °C -13.3 °C 34625.2 hPa ENE 15 km/h 15 km/h 78 % 0 mm 599.0 W/m2 CLR
13:24 -11.2 °C -13.2 °C 34611.7 hPa ENE 23.8 km/h 23.8 km/h 78 % 0 mm 601.0 W/m2 CLR
13:29 -11.1 °C -13.2 °C 34611.7 hPa ENE 20.9 km/h 20.9 km/h 78 % 0 mm 599.0 W/m2 CLR
13:34 -11.1 °C -13.2 °C 34611.7 hPa NE 23.3 km/h 23.3 km/h 77 % 0 mm 596.0 W/m2 CLR
13:39 -11.1 °C -13.2 °C 34601.5 hPa NE 23.3 km/h 23.3 km/h 77 % 0 mm 598.0 W/m2 CLR
13:44 -11.1 °C -13.2 °C 34601.5 hPa ENE 23.8 km/h 23.8 km/h 77 % 0 mm 592.0 W/m2 CLR
13:49 -11 °C -13.1 °C 34601.5 hPa NNE 15 km/h 15 km/h 78 % 0 mm 589.0 W/m2 CLR
13:54 -10.9 °C -13.1 °C 34601.5 hPa ENE 15.6 km/h 15.6 km/h 77 % 0 mm 589.0 W/m2 CLR
13:59 -10.8 °C -13 °C 34601.5 hPa NE 15 km/h 15 km/h 77 % 0 mm 584.0 W/m2 CLR
14:04 -10.7 °C -13 °C 34601.5 hPa NE 11.9 km/h 11.9 km/h 76 % 0 mm 578.0 W/m2 CLR
14:09 -10.7 °C -13.1 °C 34591.4 hPa ENE 17.9 km/h 17.9 km/h 75 % 0 mm 575.0 W/m2 CLR
14:14 -10.7 °C -13.1 °C 34591.4 hPa ENE 17.9 km/h 17.9 km/h 75 % 0 mm 568.0 W/m2 CLR
14:19 -10.7 °C -12.9 °C 34591.4 hPa NE 23.8 km/h 23.8 km/h 76 % 0 mm 568.0 W/m2 CLR
14:24 -10.8 °C -13.2 °C 34591.4 hPa ENE 20.8 km/h 20.8 km/h 75 % 0 mm 559.0 W/m2 CLR
14:29 -10.8 °C -13.1 °C 34591.4 hPa NE 26.9 km/h 26.9 km/h 76 % 0 mm 554.0 W/m2 CLR
14:34 -10.7 °C -13 °C 34591.4 hPa NE 15 km/h 15 km/h 76 % 0 mm 548.0 W/m2 CLR
14:39 -10.7 °C -13.1 °C 34577.8 hPa NE 12.9 km/h 12.9 km/h 75 % 0 mm 541.0 W/m2 CLR
14:44 -10.7 °C -13.2 °C 34577.8 hPa NE 20.9 km/h 20.9 km/h 74 % 0 mm 534.0 W/m2 CLR
14:49 -10.7 °C -13.2 °C 34577.8 hPa NE 17.9 km/h 17.9 km/h 74 % 0 mm 529.0 W/m2 CLR
14:54 -10.7 °C -13.2 °C 34577.8 hPa NNE 11.9 km/h 11.9 km/h 74 % 0 mm 520.0 W/m2 CLR
14:59 -10.6 °C -13.1 °C 34577.8 hPa NE 9 km/h 9 km/h 74 % 0 mm 510.0 W/m2 CLR
15:04 -10.4 °C -12.9 °C 34577.8 hPa ENE 23.8 km/h 23.8 km/h 75 % 0 mm 499.0 W/m2 CLR
15:09 -10.4 °C -12.8 °C 34577.8 hPa NNE 15 km/h 15 km/h 75 % 0 mm 492.0 W/m2 CLR
15:14 -10.4 °C -12.8 °C 34567.7 hPa NE 20.9 km/h 20.9 km/h 75 % 0 mm 483.0 W/m2 CLR
15:19 -10.4 °C -12.9 °C 34567.7 hPa NE 20.9 km/h 20.9 km/h 75 % 0 mm 471.0 W/m2 CLR
15:24 -10.5 °C -12.9 °C 34567.7 hPa NE 20.9 km/h 20.9 km/h 75 % 0 mm 461.0 W/m2 CLR
15:29 -10.5 °C -12.8 °C 34567.7 hPa NNE 11.9 km/h 11.9 km/h 76 % 0 mm 452.0 W/m2 CLR
15:34 -10.4 °C -12.8 °C 34567.7 hPa ENE 15 km/h 15 km/h 75 % 0 mm 434.0 W/m2 CLR
15:39 -10.4 °C -13 °C 34567.7 hPa ENE 17.9 km/h 17.9 km/h 73 % 0 mm 425.0 W/m2 CLR
15:44 -10.4 °C -13 °C 34567.7 hPa ENE 12.9 km/h 12.9 km/h 73 % 0 mm 417.0 W/m2 CLR
15:49 -10.3 °C -12.9 °C 34567.7 hPa ENE 12.9 km/h 12.9 km/h 73 % 0 mm 410.0 W/m2 CLR
15:54 -10.3 °C -12.9 °C 34567.7 hPa ENE 20.9 km/h 20.9 km/h 73 % 0 mm 397.0 W/m2 CLR
15:59 -10.3 °C -12.9 °C 34554.1 hPa ENE 15 km/h 15 km/h 73 % 0 mm 385.0 W/m2 CLR
16:04 -10.3 °C -12.9 °C 34554.1 hPa NE 20.9 km/h 20.9 km/h 73 % 0 mm 367.0 W/m2 CLR
16:09 -10.4 °C -12.9 °C 34554.1 hPa NE 15 km/h 15 km/h 74 % 0 mm 357.0 W/m2 CLR
16:14 -10.3 °C -12.9 °C 34554.1 hPa Calm     73 % 0 mm 346.0 W/m2 CLR
16:19 -10.3 °C -12.9 °C 34554.1 hPa NNE 17.9 km/h 17.9 km/h 73 % 0 mm 330.0 W/m2 CLR
16:24 -10.3 °C -12.9 °C 34554.1 hPa Calm     73 % 0 mm 316.0 W/m2 CLR
16:29 -10.2 °C -13 °C 34554.1 hPa NE 15.6 km/h 15.6 km/h 72 % 0 mm 306.0 W/m2 CLR
16:34 -10.2 °C -12.9 °C 34554.1 hPa NE 15.6 km/h 15.6 km/h 73 % 0 mm 290.0 W/m2 CLR
16:39 -10.3 °C -13.1 °C 34554.1 hPa Calm     72 % 0 mm 281.0 W/m2 CLR
16:44 -10.3 °C -12.9 °C 34554.1 hPa NE 11.9 km/h 11.9 km/h 73 % 0 mm 265.0 W/m2 CLR
16:49 -10.4 °C -13 °C 34554.1 hPa Calm     73 % 0 mm 250.0 W/m2 CLR
16:54 -10.4 °C -12.9 °C 34554.1 hPa NNE 17.9 km/h 17.9 km/h 74 % 0 mm 237.0 W/m2 CLR
16:59 -10.4 °C -12.9 °C 34554.1 hPa NE 15 km/h 15 km/h 74 % 0 mm 223.0 W/m2 CLR
17:04 -10.4 °C -12.9 °C 34554.1 hPa Calm     75 % 0 mm 204.0 W/m2 CLR
17:09 -10.5 °C -12.8 °C 34554.1 hPa NE 11.9 km/h 11.9 km/h 76 % 0 mm 181.0 W/m2 CLR
17:14 -10.6 °C -12.8 °C 34554.1 hPa NNE 15 km/h 15 km/h 77 % 0 mm 163.0 W/m2 CLR
17:19 -10.7 °C -12.8 °C 34554.1 hPa NE 7.7 km/h   78 % 0 mm 149.0 W/m2 CLR
17:24 -10.8 °C -12.7 °C 34554.1 hPa ENE 15 km/h 15 km/h 79 % 0 mm 135.0 W/m2 CLR
17:29 -10.8 °C -12.8 °C 34554.1 hPa Calm     79 % 0 mm 116.0 W/m2 CLR
17:34 -10.9 °C -12.7 °C 34554.1 hPa NE 15 km/h 15 km/h 80 % 0 mm 100.0 W/m2 CLR
17:39 -11 °C -12.7 °C 34554.1 hPa NNE 15 km/h 15 km/h 81 % 0 mm 90.0 W/m2 CLR
17:44 -11.1 °C -12.8 °C 34554.1 hPa NE 11.9 km/h   81 % 0 mm 81.0 W/m2 FEW
17:49 -11.2 °C -12.8 °C 34554.1 hPa Calm     82 % 0 mm 56.0 W/m2 SCT
17:54 -11.2 °C -12.9 °C 34554.1 hPa NNE 9 km/h 9 km/h 82 % 0 mm 47.0 W/m2 SCT
17:55 -11.2 °C -12.9 °C 34554.1 hPa Calm     82 % 0 mm 46.0 W/m2 SCT
17:56 -11.2 °C -12.9 °C 34554.1 hPa Calm     82 % 0 mm 46.0 W/m2 SCT
17:57 -11.2 °C -12.9 °C 34567.7 hPa Calm     82 % 0 mm 44.0 W/m2 SCT
18:02 -11.3 °C -12.9 °C 34567.7 hPa Calm     83 % 0 mm 18.0 W/m2 BKN
18:07 -11.4 °C -12.9 °C 34567.7 hPa Calm     83 % 0 mm 18.0 W/m2 BKN
18:12 -11.4 °C -12.9 °C 34567.7 hPa Calm     84 % 0 mm 11.0 W/m2 BKN
18:17 -11.6 °C -13 °C 34567.7 hPa Calm     84 % 0 mm 9.0 W/m2 BKN
18:22 -11.6 °C -13.1 °C 34567.7 hPa Calm     84 % 0 mm 7.0 W/m2 BKN
18:27 -11.7 °C -13.1 °C 34567.7 hPa Calm     85 % 0 mm 5.0 W/m2 OVC
18:32 -11.8 °C -13.2 °C 34567.7 hPa Calm     85 % 0 mm 0.0 W/m2 OVC
18:37 -11.8 °C -13.1 °C 34567.7 hPa Calm     86 % 0 mm 0.0 W/m2 OVC
18:42 -11.9 °C -13.1 °C 34567.7 hPa Calm     86 % 0 mm 0.0 W/m2 OVC
18:47 -12 °C -13.2 °C 34567.7 hPa Calm     86 % 0 mm 0.0 W/m2 OVC
18:52 -12.1 °C -13.3 °C 34567.7 hPa Calm     86 % 0 mm 0.0 W/m2 CLR
18:57 -12.1 °C -13.4 °C 34567.7 hPa Calm     86 % 0 mm 0.0 W/m2 CLR
19:02 -12.2 °C -13.4 °C 34567.7 hPa Calm     87 % 0 mm 0.0 W/m2 CLR
19:07 -12.3 °C -13.3 °C 34567.7 hPa Calm     88 % 0 mm 0.0 W/m2 CLR
19:12 -12.3 °C -13.4 °C 34567.7 hPa Calm     88 % 0 mm 0.0 W/m2 CLR
19:17 -12.4 °C -13.6 °C 34567.7 hPa Calm     87 % 0 mm 0.0 W/m2 CLR
19:22 -12.5 °C -13.6 °C 34567.7 hPa Calm     88 % 0 mm 0.0 W/m2 CLR
19:27 -12.6 °C -13.7 °C 34577.8 hPa Calm     88 % 0 mm 0.0 W/m2 CLR
19:32 -12.7 °C -13.7 °C 34577.8 hPa Calm     88 % 0 mm 0.0 W/m2 CLR
19:37 -12.8 °C -13.8 °C 34577.8 hPa Calm     88 % 0 mm 0.0 W/m2 CLR
19:42 -12.9 °C -13.9 °C 34577.8 hPa Calm     88 % 0 mm 0.0 W/m2 CLR
19:47 -13 °C -14.1 °C 34577.8 hPa Calm     88 % 0 mm 0.0 W/m2 CLR
19:52 -13.2 °C -14.1 °C 34577.8 hPa Calm     89 % 0 mm 0.0 W/m2 CLR
19:57 -13.2 °C -14.1 °C 34577.8 hPa Calm     90 % 0 mm 0.0 W/m2 CLR
20:02 -13.3 °C -14.3 °C 34577.8 hPa Calm     89 % 0 mm 0.0 W/m2 CLR
20:07 -13.4 °C -14.4 °C 34577.8 hPa Calm     89 % 0 mm 0.0 W/m2 CLR
20:12 -13.6 °C -14.6 °C 34591.4 hPa Calm     89 % 0 mm 0.0 W/m2 CLR
20:17 -13.7 °C -14.6 °C 34591.4 hPa Calm     89 % 0 mm 0.0 W/m2 CLR
20:22 -13.8 °C -14.6 °C 34591.4 hPa Calm     90 % 0 mm 0.0 W/m2 CLR
20:27 -13.8 °C -14.7 °C 34591.4 hPa Calm     90 % 0 mm 0.0 W/m2 CLR
20:32 -13.9 °C -14.8 °C 34591.4 hPa Calm     90 % 0 mm 0.0 W/m2 CLR
20:37 -14 °C -14.8 °C 34601.5 hPa Calm     90 % 0 mm 0.0 W/m2 CLR
20:42 -14.1 °C -14.9 °C 34601.5 hPa Calm     91 % 0 mm 0.0 W/m2 CLR
20:48 -14.3 °C -15.1 °C 34601.5 hPa Calm     90 % 0 mm 0.0 W/m2 CLR
20:53 -14.3 °C -15.1 °C 34601.5 hPa Calm     91 % 0 mm 0.0 W/m2 CLR
20:58 -14.4 °C -15.1 °C 34611.7 hPa Calm     91 % 0 mm 0.0 W/m2 CLR
21:03 -14.4 °C -15.2 °C 34611.7 hPa Calm     91 % 0 mm 0.0 W/m2 CLR
21:08 -14.5 °C -15.2 °C 34611.7 hPa Calm     91 % 0 mm 0.0 W/m2 CLR
21:13 -14.6 °C -15.3 °C 34611.7 hPa Calm     91 % 0 mm 0.0 W/m2 CLR
21:18 -14.6 °C -15.3 °C 34611.7 hPa Calm     91 % 0 mm 0.0 W/m2 CLR
21:23 -14.6 °C -15.3 °C 34611.7 hPa Calm     92 % 0 mm 0.0 W/m2 CLR
21:28 -14.7 °C -15.3 °C 34611.7 hPa Calm     92 % 0 mm 0.0 W/m2 CLR
21:33 -14.7 °C -15.4 °C 34611.7 hPa Calm     92 % 0 mm 0.0 W/m2 CLR
21:38 -14.8 °C -15.5 °C 34611.7 hPa Calm     92 % 0 mm 0.0 W/m2 CLR
21:43 -14.9 °C -15.6 °C 34611.7 hPa Calm     92 % 0 mm 0.0 W/m2 CLR
21:48 -14.9 °C -15.6 °C 34625.2 hPa Calm     92 % 0 mm 0.0 W/m2 CLR
21:53 -15.1 °C -15.7 °C 34625.2 hPa Calm     92 % 0 mm 0.0 W/m2 CLR
21:58 -15.1 °C -15.7 °C 34625.2 hPa Calm     92 % 0 mm 0.0 W/m2 CLR
22:03 -15.2 °C -15.8 °C 34625.2 hPa Calm     92 % 0 mm 0.0 W/m2 CLR
22:08 -15.2 °C -15.9 °C 34625.2 hPa Calm     92 % 0 mm 0.0 W/m2 CLR
22:13 -15.2 °C -15.9 °C 34625.2 hPa Calm     92 % 0 mm 0.0 W/m2 CLR
22:18 -15.3 °C -15.9 °C 34635.4 hPa Calm     92 % 0 mm 0.0 W/m2 CLR
22:23 -15.3 °C -15.9 °C 34635.4 hPa Calm     92 % 0 mm 0.0 W/m2 CLR
22:28 -15.4 °C -16 °C 34635.4 hPa Calm     92 % 0 mm 0.0 W/m2 CLR
22:29 -15.4 °C -16.1 °C 34635.4 hPa Calm     92 % 0 mm 0.0 W/m2 CLR
22:34 -15.5 °C -16.2 °C 34635.4 hPa Calm     92 % 0 mm 0.0 W/m2 CLR
22:39 -15.6 °C -16.2 °C 34635.4 hPa Calm     92 % 0 mm 0.0 W/m2 CLR
22:44 -15.6 °C -16.2 °C 34635.4 hPa Calm     92 % 0 mm 0.0 W/m2 CLR
22:49 -15.6 °C -16.2 °C 34635.4 hPa Calm     93 % 0 mm 0.0 W/m2 CLR
22:54 -15.6 °C -16.2 °C 34635.4 hPa Calm     93 % 0 mm 0.0 W/m2 CLR
22:59 -15.5 °C -16.1 °C 34645.6 hPa Calm     93 % 0 mm 0.0 W/m2 CLR
23:04 -15.6 °C -16.2 °C 34645.6 hPa Calm     93 % 0 mm 0.0 W/m2 CLR
23:09 -15.6 °C -16.2 °C 34645.6 hPa Calm     93 % 0 mm 0.0 W/m2 CLR
23:15 -15.6 °C -16.2 °C 34645.6 hPa Calm     93 % 0 mm 0.0 W/m2 CLR
23:20 -15.6 °C -16.2 °C 34645.6 hPa Calm     93 % 0 mm 0.0 W/m2 CLR
23:25 -15.7 °C -16.2 °C 34645.6 hPa Calm     93 % 0 mm 0.0 W/m2 CLR
23:30 -15.7 °C -16.3 °C 34659.1 hPa Calm     93 % 0 mm 0.0 W/m2 CLR
23:35 -15.7 °C -16.3 °C 34659.1 hPa Calm     93 % 0 mm 0.0 W/m2 CLR
23:40 -15.7 °C -16.3 °C 34659.1 hPa Calm     93 % 0 mm 0.0 W/m2 CLR
23:45 -15.7 °C -16.3 °C 34659.1 hPa Calm     93 % 0 mm 0.0 W/m2 CLR
23:50 -15.9 °C -16.4 °C 34659.1 hPa Calm     93 % 0 mm 0.0 W/m2 CLR
23:55 -15.9 °C -16.5 °C 34659.1 hPa Calm     93 % 0 mm 0.0 W/m2 CLR
Lo Temps de Massalio
Compliments of Weather Underground - 1.25 mb